sensor_id;sensor_type;location;lat;lon;timestamp;pressure;altitude;pressure_sealevel;temperature;humidity
8717;BME280;4395;48.554;8.820;2022-10-16T00:01:18;95767.66;;;15.47;100.00
8717;BME280;4395;48.554;8.820;2022-10-16T00:03:22;95802.13;;;15.70;100.00
8717;BME280;4395;48.554;8.820;2022-10-16T00:05:31;95803.81;;;15.66;100.00
8717;BME280;4395;48.554;8.820;2022-10-16T00:07:34;95712.38;;;14.95;100.00
8717;BME280;4395;48.554;8.820;2022-10-16T00:09:36;95807.38;;;15.61;100.00
8717;BME280;4395;48.554;8.820;2022-10-16T00:11:39;95617.69;;;14.32;100.00
8717;BME280;4395;48.554;8.820;2022-10-16T00:13:44;95745.00;;;15.08;100.00
8717;BME280;4395;48.554;8.820;2022-10-16T00:15:47;95806.59;;;15.51;100.00
8717;BME280;4395;48.554;8.820;2022-10-16T00:17:50;95812.59;;;15.48;100.00
8717;BME280;4395;48.554;8.820;2022-10-16T00:19:54;95753.63;;;15.10;100.00
8717;BME280;4395;48.554;8.820;2022-10-16T00:21:56;95806.78;;;15.30;100.00
8717;BME280;4395;48.554;8.820;2022-10-16T00:24:01;95813.59;;;15.28;100.00
8717;BME280;4395;48.554;8.820;2022-10-16T00:26:06;95749.25;;;14.86;100.00
8717;BME280;4395;48.554;8.820;2022-10-16T00:28:10;95807.03;;;15.34;100.00
8717;BME280;4395;48.554;8.820;2022-10-16T00:30:12;95808.88;;;15.38;100.00
8717;BME280;4395;48.554;8.820;2022-10-16T00:32:15;95802.91;;;15.41;100.00
8717;BME280;4395;48.554;8.820;2022-10-16T00:34:18;95805.31;;;15.43;100.00
8717;BME280;4395;48.554;8.820;2022-10-16T00:36:23;95806.94;;;15.44;100.00
8717;BME280;4395;48.554;8.820;2022-10-16T00:38:26;95692.41;;;14.57;100.00
8717;BME280;4395;48.554;8.820;2022-10-16T00:40:29;95800.72;;;15.43;100.00
8717;BME280;4395;48.554;8.820;2022-10-16T00:42:33;95794.50;;;15.43;100.00
8717;BME280;4395;48.554;8.820;2022-10-16T00:44:44;95728.81;;;15.03;100.00
8717;BME280;4395;48.554;8.820;2022-10-16T00:46:49;95802.63;;;15.43;100.00
8717;BME280;4395;48.554;8.820;2022-10-16T00:48:57;95798.28;;;15.42;100.00
8717;BME280;4395;48.554;8.820;2022-10-16T00:51:02;95790.97;;;15.42;100.00
8717;BME280;4395;48.554;8.820;2022-10-16T00:53:08;95796.69;;;15.41;100.00
8717;BME280;4395;48.554;8.820;2022-10-16T00:55:11;95757.91;;;15.17;100.00
8717;BME280;4395;48.554;8.820;2022-10-16T00:57:14;95762.41;;;14.97;100.00
8717;BME280;4395;48.554;8.820;2022-10-16T00:59:20;95815.19;;;15.29;100.00
8717;BME280;4395;48.554;8.820;2022-10-16T01:01:25;95745.84;;;14.70;100.00
8717;BME280;4395;48.554;8.820;2022-10-16T01:03:31;95803.44;;;15.09;100.00
8717;BME280;4395;48.554;8.820;2022-10-16T01:05:39;95755.06;;;14.69;100.00
8717;BME280;4395;48.554;8.820;2022-10-16T01:07:52;95820.25;;;15.06;100.00
8717;BME280;4395;48.554;8.820;2022-10-16T01:10:04;95815.69;;;15.02;100.00
8717;BME280;4395;48.554;8.820;2022-10-16T01:12:13;95822.91;;;15.11;100.00
8717;BME280;4395;48.554;8.820;2022-10-16T01:14:22;95807.16;;;15.19;100.00
8717;BME280;4395;48.554;8.820;2022-10-16T01:16:31;95810.38;;;15.21;100.00
8717;BME280;4395;48.554;8.820;2022-10-16T01:18:39;95807.94;;;15.24;100.00
8717;BME280;4395;48.554;8.820;2022-10-16T01:20:50;95813.88;;;15.26;100.00
8717;BME280;4395;48.554;8.820;2022-10-16T01:23:03;95768.81;;;15.06;100.00
8717;BME280;4395;48.554;8.820;2022-10-16T01:25:15;95767.50;;;15.04;100.00
8717;BME280;4395;48.554;8.820;2022-10-16T01:27:24;95804.38;;;15.29;100.00
8717;BME280;4395;48.554;8.820;2022-10-16T01:29:31;95809.50;;;15.30;100.00
8717;BME280;4395;48.554;8.820;2022-10-16T01:31:39;95810.03;;;15.32;100.00
8717;BME280;4395;48.554;8.820;2022-10-16T01:33:45;95812.44;;;15.34;100.00
8717;BME280;4395;48.554;8.820;2022-10-16T01:35:55;95762.41;;;14.97;100.00
8717;BME280;4395;48.554;8.820;2022-10-16T01:38:03;95813.81;;;15.31;100.00
8717;BME280;4395;48.554;8.820;2022-10-16T01:40:09;95778.03;;;15.05;100.00
8717;BME280;4395;48.554;8.820;2022-10-16T01:42:16;95746.22;;;14.92;100.00
8717;BME280;4395;48.554;8.820;2022-10-16T01:44:26;95637.69;;;14.31;100.00
8717;BME280;4395;48.554;8.820;2022-10-16T01:46:31;95802.09;;;15.41;100.00
8717;BME280;4395;48.554;8.820;2022-10-16T01:48:35;95814.53;;;15.42;100.00
8717;BME280;4395;48.554;8.820;2022-10-16T01:50:40;95810.22;;;15.41;100.00
8717;BME280;4395;48.554;8.820;2022-10-16T01:52:47;95808.59;;;15.40;100.00
8717;BME280;4395;48.554;8.820;2022-10-16T01:54:52;95821.31;;;15.39;100.00
8717;BME280;4395;48.554;8.820;2022-10-16T01:56:57;95821.09;;;15.36;100.00
8717;BME280;4395;48.554;8.820;2022-10-16T01:59:03;95810.78;;;15.38;100.00
8717;BME280;4395;48.554;8.820;2022-10-16T02:01:11;95818.09;;;15.37;100.00
8717;BME280;4395;48.554;8.820;2022-10-16T02:03:19;95810.25;;;15.36;100.00
8717;BME280;4395;48.554;8.820;2022-10-16T02:05:28;95820.00;;;15.37;100.00
8717;BME280;4395;48.554;8.820;2022-10-16T02:07:33;95807.50;;;15.41;100.00
8717;BME280;4395;48.554;8.820;2022-10-16T02:09:37;95816.44;;;15.41;100.00
8717;BME280;4395;48.554;8.820;2022-10-16T02:11:40;95815.91;;;15.39;100.00
8717;BME280;4395;48.554;8.820;2022-10-16T02:13:45;95809.13;;;15.42;100.00
8717;BME280;4395;48.554;8.820;2022-10-16T02:15:50;95815.34;;;15.42;100.00
8717;BME280;4395;48.554;8.820;2022-10-16T02:17:56;95819.94;;;15.42;100.00
8717;BME280;4395;48.554;8.820;2022-10-16T02:19:59;95688.91;;;14.56;100.00
8717;BME280;4395;48.554;8.820;2022-10-16T02:22:04;95491.56;;;13.05;100.00
8717;BME280;4395;48.554;8.820;2022-10-16T02:24:14;95805.41;;;15.33;100.00
8717;BME280;4395;48.554;8.820;2022-10-16T02:26:26;95807.03;;;15.34;100.00
8717;BME280;4395;48.554;8.820;2022-10-16T02:28:39;95624.03;;;14.12;100.00
8717;BME280;4395;48.554;8.820;2022-10-16T02:30:45;95810.81;;;15.33;100.00
8717;BME280;4395;48.554;8.820;2022-10-16T02:32:51;95819.28;;;15.26;100.00
8717;BME280;4395;48.554;8.820;2022-10-16T02:34:56;95824.97;;;15.25;100.00
8717;BME280;4395;48.554;8.820;2022-10-16T02:37:01;95807.13;;;15.24;100.00
8717;BME280;4395;48.554;8.820;2022-10-16T02:39:06;95779.97;;;15.00;100.00
8717;BME280;4395;48.554;8.820;2022-10-16T02:41:10;95805.50;;;15.23;100.00
8717;BME280;4395;48.554;8.820;2022-10-16T02:43:13;95762.53;;;14.82;100.00
8717;BME280;4395;48.554;8.820;2022-10-16T02:45:16;95802.84;;;15.18;100.00
8717;BME280;4395;48.554;8.820;2022-10-16T02:47:19;95806.63;;;15.17;100.00
8717;BME280;4395;48.554;8.820;2022-10-16T02:49:21;95800.13;;;15.18;100.00
8717;BME280;4395;48.554;8.820;2022-10-16T02:51:25;95816.31;;;15.23;100.00
8717;BME280;4395;48.554;8.820;2022-10-16T02:53:28;95833.94;;;15.20;100.00
8717;BME280;4395;48.554;8.820;2022-10-16T02:55:31;95820.41;;;15.20;100.00
8717;BME280;4395;48.554;8.820;2022-10-16T02:57:34;95813.91;;;15.21;100.00
8717;BME280;4395;48.554;8.820;2022-10-16T02:59:38;95817.19;;;15.18;100.00
8717;BME280;4395;48.554;8.820;2022-10-16T03:01:41;95737.13;;;14.78;100.00
8717;BME280;4395;48.554;8.820;2022-10-16T03:03:44;95825.53;;;15.22;100.00
8717;BME280;4395;48.554;8.820;2022-10-16T03:05:47;95825.59;;;15.17;100.00
8717;BME280;4395;48.554;8.820;2022-10-16T03:07:51;95818.75;;;15.24;100.00
8717;BME280;4395;48.554;8.820;2022-10-16T03:09:54;95835.00;;;15.24;100.00
8717;BME280;4395;48.554;8.820;2022-10-16T03:11:57;95822.78;;;15.27;100.00
8717;BME280;4395;48.554;8.820;2022-10-16T03:13:59;95765.72;;;14.89;100.00
8717;BME280;4395;48.554;8.820;2022-10-16T03:16:02;95822.75;;;15.32;100.00
8717;BME280;4395;48.554;8.820;2022-10-16T03:18:05;95649.09;;;14.23;100.00
8717;BME280;4395;48.554;8.820;2022-10-16T03:20:09;95820.59;;;15.29;100.00
8717;BME280;4395;48.554;8.820;2022-10-16T03:22:12;95623.78;;;14.08;100.00
8717;BME280;4395;48.554;8.820;2022-10-16T03:24:16;95708.94;;;14.50;100.00
8717;BME280;4395;48.554;8.820;2022-10-16T03:26:19;95640.19;;;14.22;100.00
8717;BME280;4395;48.554;8.820;2022-10-16T03:28:22;95548.28;;;13.49;100.00
8717;BME280;4395;48.554;8.820;2022-10-16T03:30:25;95656.50;;;14.07;100.00
8717;BME280;4395;48.554;8.820;2022-10-16T03:32:28;95825.47;;;15.32;100.00
8717;BME280;4395;48.554;8.820;2022-10-16T03:34:31;95819.56;;;15.25;100.00
8717;BME280;4395;48.554;8.820;2022-10-16T03:36:33;95834.19;;;15.24;100.00
8717;BME280;4395;48.554;8.820;2022-10-16T03:38:36;95837.19;;;15.22;100.00
8717;BME280;4395;48.554;8.820;2022-10-16T03:40:40;95837.25;;;15.12;100.00
8717;BME280;4395;48.554;8.820;2022-10-16T03:42:43;95835.81;;;15.25;100.00
8717;BME280;4395;48.554;8.820;2022-10-16T03:44:46;95836.28;;;15.32;100.00
8717;BME280;4395;48.554;8.820;2022-10-16T03:46:49;95840.66;;;15.28;100.00
8717;BME280;4395;48.554;8.820;2022-10-16T03:48:52;95837.94;;;15.28;100.00
8717;BME280;4395;48.554;8.820;2022-10-16T03:50:55;95843.03;;;15.34;100.00
8717;BME280;4395;48.554;8.820;2022-10-16T03:52:57;95846.38;;;15.21;100.00
8717;BME280;4395;48.554;8.820;2022-10-16T03:55:00;95842.28;;;15.29;100.00
8717;BME280;4395;48.554;8.820;2022-10-16T03:57:04;95841.38;;;15.38;100.00
8717;BME280;4395;48.554;8.820;2022-10-16T03:59:07;95831.59;;;15.42;100.00
8717;BME280;4395;48.554;8.820;2022-10-16T04:01:10;95838.38;;;15.40;100.00
8717;BME280;4395;48.554;8.820;2022-10-16T04:03:13;95836.47;;;15.40;100.00
8717;BME280;4395;48.554;8.820;2022-10-16T04:05:16;95833.78;;;15.40;100.00
8717;BME280;4395;48.554;8.820;2022-10-16T04:07:19;95717.38;;;14.77;100.00
8717;BME280;4395;48.554;8.820;2022-10-16T04:09:21;95661.69;;;14.37;100.00
8717;BME280;4395;48.554;8.820;2022-10-16T04:11:24;95822.84;;;15.51;100.00
8717;BME280;4395;48.554;8.820;2022-10-16T04:13:28;95762.97;;;14.94;100.00
8717;BME280;4395;48.554;8.820;2022-10-16T04:15:31;95793.63;;;15.19;100.00
8717;BME280;4395;48.554;8.820;2022-10-16T04:17:34;95835.63;;;15.45;100.00
8717;BME280;4395;48.554;8.820;2022-10-16T04:19:36;95826.97;;;15.43;100.00
8717;BME280;4395;48.554;8.820;2022-10-16T04:21:39;95826.09;;;15.53;100.00
8717;BME280;4395;48.554;8.820;2022-10-16T04:23:42;95826.88;;;15.53;100.00
8717;BME280;4395;48.554;8.820;2022-10-16T04:25:45;95830.16;;;15.50;100.00
8717;BME280;4395;48.554;8.820;2022-10-16T04:27:48;95824.47;;;15.52;100.00
8717;BME280;4395;48.554;8.820;2022-10-16T04:29:52;95835.53;;;15.55;100.00
8717;BME280;4395;48.554;8.820;2022-10-16T04:31:55;95651.16;;;14.36;100.00
8717;BME280;4395;48.554;8.820;2022-10-16T04:33:58;95825.81;;;15.54;100.00
8717;BME280;4395;48.554;8.820;2022-10-16T04:36:01;95765.00;;;15.12;100.00
8717;BME280;4395;48.554;8.820;2022-10-16T04:38:04;95763.91;;;15.13;100.00
8717;BME280;4395;48.554;8.820;2022-10-16T04:40:08;95839.34;;;15.54;100.00
8717;BME280;4395;48.554;8.820;2022-10-16T04:42:10;95838.25;;;15.55;100.00
8717;BME280;4395;48.554;8.820;2022-10-16T04:44:13;95806.03;;;15.25;100.00
8717;BME280;4395;48.554;8.820;2022-10-16T04:46:17;95849.69;;;15.47;100.00
8717;BME280;4395;48.554;8.820;2022-10-16T04:48:20;95861.66;;;15.41;100.00
8717;BME280;4395;48.554;8.820;2022-10-16T04:50:23;95675.59;;;14.21;100.00
8717;BME280;4395;48.554;8.820;2022-10-16T04:52:38;95874.63;;;15.44;100.00
8717;BME280;4395;48.554;8.820;2022-10-16T04:54:41;95852.13;;;15.49;100.00
8717;BME280;4395;48.554;8.820;2022-10-16T04:56:46;95844.00;;;15.49;100.00
8717;BME280;4395;48.554;8.820;2022-10-16T04:58:51;95859.97;;;15.50;100.00
8717;BME280;4395;48.554;8.820;2022-10-16T05:00:54;95856.16;;;15.51;100.00
8717;BME280;4395;48.554;8.820;2022-10-16T05:02:58;95847.50;;;15.49;100.00
8717;BME280;4395;48.554;8.820;2022-10-16T05:05:02;95847.50;;;15.49;100.00
8717;BME280;4395;48.554;8.820;2022-10-16T05:07:05;95848.03;;;15.51;100.00
8717;BME280;4395;48.554;8.820;2022-10-16T05:09:08;95779.09;;;15.09;100.00
8717;BME280;4395;48.554;8.820;2022-10-16T05:11:10;95853.41;;;15.56;100.00
8717;BME280;4395;48.554;8.820;2022-10-16T05:13:13;95854.31;;;15.47;100.00
8717;BME280;4395;48.554;8.820;2022-10-16T05:15:16;95854.53;;;15.50;100.00
8717;BME280;4395;48.554;8.820;2022-10-16T05:17:19;95852.63;;;15.51;100.00
8717;BME280;4395;48.554;8.820;2022-10-16T05:19:23;95844.28;;;15.47;100.00
8717;BME280;4395;48.554;8.820;2022-10-16T05:21:28;95850.25;;;15.44;100.00
8717;BME280;4395;48.554;8.820;2022-10-16T05:23:31;95860.00;;;15.45;100.00
8717;BME280;4395;48.554;8.820;2022-10-16T05:25:34;95868.13;;;15.45;100.00
8717;BME280;4395;48.554;8.820;2022-10-16T05:27:37;95868.16;;;15.40;100.00
8717;BME280;4395;48.554;8.820;2022-10-16T05:29:39;95873.03;;;15.43;100.00
8717;BME280;4395;48.554;8.820;2022-10-16T05:31:42;95771.59;;;14.62;100.00
8717;BME280;4395;48.554;8.820;2022-10-16T05:33:45;95873.81;;;15.43;100.00
8717;BME280;4395;48.554;8.820;2022-10-16T05:35:49;95872.78;;;15.39;100.00
8717;BME280;4395;48.554;8.820;2022-10-16T05:37:52;95755.94;;;14.59;100.00
8717;BME280;4395;48.554;8.820;2022-10-16T05:39:55;95872.56;;;15.31;100.00
8717;BME280;4395;48.554;8.820;2022-10-16T05:41:58;95879.03;;;15.35;100.00
8717;BME280;4395;48.554;8.820;2022-10-16T05:44:04;95882.28;;;15.37;100.00
8717;BME280;4395;48.554;8.820;2022-10-16T05:46:06;95767.25;;;14.66;100.00
8717;BME280;4395;48.554;8.820;2022-10-16T05:48:09;95796.94;;;14.76;100.00
8717;BME280;4395;48.554;8.820;2022-10-16T05:50:12;95904.50;;;15.34;100.00
8717;BME280;4395;48.554;8.820;2022-10-16T05:52:16;95898.28;;;15.33;100.00
8717;BME280;4395;48.554;8.820;2022-10-16T05:54:19;95905.56;;;15.38;100.00
8717;BME280;4395;48.554;8.820;2022-10-16T05:56:21;95931.53;;;15.39;100.00
8717;BME280;4395;48.554;8.820;2022-10-16T05:58:27;95893.88;;;15.42;100.00
8717;BME280;4395;48.554;8.820;2022-10-16T06:00:30;95896.56;;;15.42;100.00
8717;BME280;4395;48.554;8.820;2022-10-16T06:02:33;95906.31;;;15.43;100.00
8717;BME280;4395;48.554;8.820;2022-10-16T06:04:35;95907.66;;;15.46;100.00
8717;BME280;4395;48.554;8.820;2022-10-16T06:06:38;95902.47;;;15.50;100.00
8717;BME280;4395;48.554;8.820;2022-10-16T06:08:43;95897.88;;;15.50;100.00
8717;BME280;4395;48.554;8.820;2022-10-16T06:10:47;95902.19;;;15.51;100.00
8717;BME280;4395;48.554;8.820;2022-10-16T06:12:50;95903.28;;;15.50;100.00
8717;BME280;4395;48.554;8.820;2022-10-16T06:14:52;95902.97;;;15.57;100.00
8717;BME280;4395;48.554;8.820;2022-10-16T06:16:55;95980.16;;;15.59;100.00
8717;BME280;4395;48.554;8.820;2022-10-16T06:18:58;95907.03;;;15.59;100.00
8717;BME280;4395;48.554;8.820;2022-10-16T06:21:07;95857.47;;;15.25;100.00
8717;BME280;4395;48.554;8.820;2022-10-16T06:23:11;95904.88;;;15.61;100.00
8717;BME280;4395;48.554;8.820;2022-10-16T06:25:15;95915.69;;;15.66;100.00
8717;BME280;4395;48.554;8.820;2022-10-16T06:27:17;95911.88;;;15.67;100.00
8717;BME280;4395;48.554;8.820;2022-10-16T06:29:20;95923.19;;;15.74;100.00
8717;BME280;4395;48.554;8.820;2022-10-16T06:31:23;95712.81;;;14.34;100.00
8717;BME280;4395;48.554;8.820;2022-10-16T06:33:28;95879.44;;;15.52;100.00
8717;BME280;4395;48.554;8.820;2022-10-16T06:35:31;95927.94;;;15.88;100.00
8717;BME280;4395;48.554;8.820;2022-10-16T06:37:34;95920.91;;;15.87;100.00
8717;BME280;4395;48.554;8.820;2022-10-16T06:39:37;95918.78;;;15.84;100.00
8717;BME280;4395;48.554;8.820;2022-10-16T06:41:41;95943.16;;;15.84;100.00
8717;BME280;4395;48.554;8.820;2022-10-16T06:43:49;95937.13;;;15.92;100.00
8717;BME280;4395;48.554;8.820;2022-10-16T06:45:54;95906.50;;;15.62;100.00
8717;BME280;4395;48.554;8.820;2022-10-16T06:47:57;95865.63;;;15.54;100.00
8717;BME280;4395;48.554;8.820;2022-10-16T06:50:00;95936.78;;;15.98;100.00
8717;BME280;4395;48.554;8.820;2022-10-16T06:52:03;95906.22;;;15.64;100.00
8717;BME280;4395;48.554;8.820;2022-10-16T06:54:06;95932.66;;;16.06;100.00
8717;BME280;4395;48.554;8.820;2022-10-16T06:56:09;95942.94;;;16.09;100.00
8717;BME280;4395;48.554;8.820;2022-10-16T06:58:13;95945.34;;;16.11;100.00
8717;BME280;4395;48.554;8.820;2022-10-16T07:00:16;95948.81;;;16.16;100.00
8717;BME280;4395;48.554;8.820;2022-10-16T07:02:19;95930.53;;;16.03;100.00
8717;BME280;4395;48.554;8.820;2022-10-16T07:04:22;95964.22;;;16.21;100.00
8717;BME280;4395;48.554;8.820;2022-10-16T07:06:25;95928.19;;;15.91;100.00
8717;BME280;4395;48.554;8.820;2022-10-16T07:08:30;95433.19;;;12.65;100.00
8717;BME280;4395;48.554;8.820;2022-10-16T07:10:33;95976.88;;;16.30;100.00
8717;BME280;4395;48.554;8.820;2022-10-16T07:12:36;95982.53;;;16.34;100.00
8717;BME280;4395;48.554;8.820;2022-10-16T07:14:40;95982.88;;;16.27;100.00
8717;BME280;4395;48.554;8.820;2022-10-16T07:16:46;95909.31;;;15.81;100.00
8717;BME280;4395;48.554;8.820;2022-10-16T07:18:49;95985.25;;;16.34;100.00
8717;BME280;4395;48.554;8.820;2022-10-16T07:21:03;95987.63;;;16.40;100.00
8717;BME280;4395;48.554;8.820;2022-10-16T07:23:06;95994.38;;;16.43;100.00
8717;BME280;4395;48.554;8.820;2022-10-16T07:25:09;95994.94;;;16.40;100.00
8717;BME280;4395;48.554;8.820;2022-10-16T07:27:12;95825.41;;;15.37;100.00
8717;BME280;4395;48.554;8.820;2022-10-16T07:29:17;96000.31;;;16.45;100.00
8717;BME280;4395;48.554;8.820;2022-10-16T07:31:21;95982.88;;;16.27;100.00
8717;BME280;4395;48.554;8.820;2022-10-16T07:33:24;95942.25;;;16.22;100.00
8717;BME280;4395;48.554;8.820;2022-10-16T07:35:27;95998.84;;;16.58;100.00
8717;BME280;4395;48.554;8.820;2022-10-16T07:37:30;96004.22;;;16.63;100.00
8717;BME280;4395;48.554;8.820;2022-10-16T07:39:32;96008.28;;;16.65;100.00
8717;BME280;4395;48.554;8.820;2022-10-16T07:41:35;96004.13;;;16.73;100.00
8717;BME280;4395;48.554;8.820;2022-10-16T07:43:39;95778.56;;;15.07;100.00
8717;BME280;4395;48.554;8.820;2022-10-16T07:45:48;96015.13;;;16.58;100.00
8717;BME280;4395;48.554;8.820;2022-10-16T07:47:57;95946.34;;;16.20;100.00
8717;BME280;4395;48.554;8.820;2022-10-16T07:50:00;96020.50;;;16.63;100.00
8717;BME280;4395;48.554;8.820;2022-10-16T07:52:03;96028.59;;;16.68;100.00
8717;BME280;4395;48.554;8.820;2022-10-16T07:54:08;96029.66;;;16.72;100.00
8717;BME280;4395;48.554;8.820;2022-10-16T07:56:11;96028.50;;;16.78;100.00
8717;BME280;4395;48.554;8.820;2022-10-16T07:58:14;95934.22;;;16.12;100.00
8717;BME280;4395;48.554;8.820;2022-10-16T08:00:16;95979.09;;;16.52;100.00
8717;BME280;4395;48.554;8.820;2022-10-16T08:02:19;95890.06;;;15.83;100.00
8717;BME280;4395;48.554;8.820;2022-10-16T08:04:23;96035.25;;;17.04;100.00
8717;BME280;4395;48.554;8.820;2022-10-16T08:06:26;96044.94;;;17.11;100.00
8717;BME280;4395;48.554;8.820;2022-10-16T08:08:29;96037.56;;;17.16;100.00
8717;BME280;4395;48.554;8.820;2022-10-16T08:10:32;96048.06;;;17.23;100.00
8717;BME280;4395;48.554;8.820;2022-10-16T08:12:35;96039.97;;;17.18;100.00
8717;BME280;4395;48.554;8.820;2022-10-16T08:14:37;96032.94;;;17.17;100.00
8717;BME280;4395;48.554;8.820;2022-10-16T08:16:46;96032.78;;;17.27;100.00
8717;BME280;4395;48.554;8.820;2022-10-16T08:18:48;96032.44;;;17.33;100.00
8717;BME280;4395;48.554;8.820;2022-10-16T08:20:58;95948.41;;;16.57;100.00
8717;BME280;4395;48.554;8.820;2022-10-16T08:23:01;96039.50;;;17.34;100.00
8717;BME280;4395;48.554;8.820;2022-10-16T08:25:05;95889.06;;;16.26;100.00
8717;BME280;4395;48.554;8.820;2022-10-16T08:27:08;96047.06;;;17.38;100.00
8717;BME280;4395;48.554;8.820;2022-10-16T08:29:13;95782.84;;;15.77;100.00
8717;BME280;4395;48.554;8.820;2022-10-16T08:31:16;96041.78;;;17.46;100.00
8717;BME280;4395;48.554;8.820;2022-10-16T08:33:18;96011.59;;;17.29;100.00
8717;BME280;4395;48.554;8.820;2022-10-16T08:35:21;96001.09;;;17.22;100.00
8717;BME280;4395;48.554;8.820;2022-10-16T08:37:29;96058.47;;;17.58;100.00
8717;BME280;4395;48.554;8.820;2022-10-16T08:39:32;96066.59;;;17.58;100.00
8717;BME280;4395;48.554;8.820;2022-10-16T08:41:57;96066.09;;;17.56;100.00
8717;BME280;4395;48.554;8.820;2022-10-16T08:44:20;96064.25;;;17.52;100.00
8717;BME280;4395;48.554;8.820;2022-10-16T08:46:37;95673.53;;;15.09;100.00
8717;BME280;4395;48.554;8.820;2022-10-16T08:48:52;96075.75;;;17.67;100.00
8717;BME280;4395;48.554;8.820;2022-10-16T08:50:55;95777.88;;;15.84;100.00
8717;BME280;4395;48.554;8.820;2022-10-16T08:53:00;96076.63;;;17.82;100.00
8717;BME280;4395;48.554;8.820;2022-10-16T08:55:03;96067.31;;;17.88;100.00
8717;BME280;4395;48.554;8.820;2022-10-16T08:57:09;96022.69;;;17.51;100.00
8717;BME280;4395;48.554;8.820;2022-10-16T08:59:14;96051.84;;;17.64;100.00
8717;BME280;4395;48.554;8.820;2022-10-16T09:01:21;96024.91;;;17.49;100.00
8717;BME280;4395;48.554;8.820;2022-10-16T09:03:36;96093.31;;;17.94;100.00
8717;BME280;4395;48.554;8.820;2022-10-16T09:05:54;95704.69;;;15.65;100.00
8717;BME280;4395;48.554;8.820;2022-10-16T09:08:09;96094.59;;;18.20;100.00
8717;BME280;4395;48.554;8.820;2022-10-16T09:10:29;96107.50;;;18.28;100.00
8717;BME280;4395;48.554;8.820;2022-10-16T09:12:40;96111.03;;;18.29;100.00
8717;BME280;4395;48.554;8.820;2022-10-16T09:14:56;96090.44;;;18.42;100.00
8717;BME280;4395;48.554;8.820;2022-10-16T09:17:11;96126.97;;;18.54;100.00
8717;BME280;4395;48.554;8.820;2022-10-16T09:19:21;96096.91;;;18.46;100.00
8717;BME280;4395;48.554;8.820;2022-10-16T09:21:29;96097.31;;;18.53;100.00
8717;BME280;4395;48.554;8.820;2022-10-16T09:23:36;95907.25;;;17.49;100.00
8717;BME280;4395;48.554;8.820;2022-10-16T09:25:42;96095.03;;;18.60;100.00
8717;BME280;4395;48.554;8.820;2022-10-16T09:27:47;96100.75;;;18.77;100.00
8717;BME280;4395;48.554;8.820;2022-10-16T09:29:55;96104.94;;;19.16;100.00
8717;BME280;4395;48.554;8.820;2022-10-16T09:32:10;96090.59;;;19.51;100.00
8717;BME280;4395;48.554;8.820;2022-10-16T09:34:20;96091.25;;;19.98;100.00
8717;BME280;4395;48.554;8.820;2022-10-16T09:36:25;96104.41;;;20.18;100.00
8717;BME280;4395;48.554;8.820;2022-10-16T09:38:31;96097.66;;;20.38;100.00
8717;BME280;4395;48.554;8.820;2022-10-16T09:40:37;95947.09;;;19.33;100.00
8717;BME280;4395;48.554;8.820;2022-10-16T09:42:40;96045.00;;;20.15;100.00
8717;BME280;4395;48.554;8.820;2022-10-16T09:44:47;96116.28;;;20.36;100.00
8717;BME280;4395;48.554;8.820;2022-10-16T09:47:01;96103.56;;;20.32;100.00
8717;BME280;4395;48.554;8.820;2022-10-16T09:49:16;96115.38;;;20.41;100.00
8717;BME280;4395;48.554;8.820;2022-10-16T09:51:23;96123.66;;;20.36;100.00
8717;BME280;4395;48.554;8.820;2022-10-16T09:53:39;96116.06;;;20.46;100.00
8717;BME280;4395;48.554;8.820;2022-10-16T09:55:50;96125.75;;;20.52;100.00
8717;BME280;4395;48.554;8.820;2022-10-16T09:57:54;96125.38;;;20.45;100.00
8717;BME280;4395;48.554;8.820;2022-10-16T09:59:58;96052.91;;;19.81;100.00
8717;BME280;4395;48.554;8.820;2022-10-16T10:02:02;96120.66;;;20.23;100.00
8717;BME280;4395;48.554;8.820;2022-10-16T10:04:07;96074.22;;;19.79;100.00
8717;BME280;4395;48.554;8.820;2022-10-16T10:06:21;96115.88;;;20.07;100.00
8717;BME280;4395;48.554;8.820;2022-10-16T10:08:24;96114.81;;;20.16;100.00
8717;BME280;4395;48.554;8.820;2022-10-16T10:10:29;96121.78;;;20.22;100.00
8717;BME280;4395;48.554;8.820;2022-10-16T10:12:34;95974.13;;;19.43;100.00
8717;BME280;4395;48.554;8.820;2022-10-16T10:14:39;96116.31;;;20.22;100.00
8717;BME280;4395;48.554;8.820;2022-10-16T10:16:45;96096.78;;;20.07;100.00
8717;BME280;4395;48.554;8.820;2022-10-16T10:18:58;95796.91;;;18.26;100.00
8717;BME280;4395;48.554;8.820;2022-10-16T10:21:02;96125.56;;;20.35;100.00
8717;BME280;4395;48.554;8.820;2022-10-16T10:23:20;96121.16;;;20.26;100.00
8717;BME280;4395;48.554;8.820;2022-10-16T10:25:36;96121.34;;;20.65;100.00
8717;BME280;4395;48.554;8.820;2022-10-16T10:27:51;96115.22;;;21.13;100.00
8717;BME280;4395;48.554;8.820;2022-10-16T10:30:02;95989.78;;;20.94;100.00
8717;BME280;4395;48.554;8.820;2022-10-16T10:32:18;96013.91;;;21.40;97.40
8717;BME280;4395;48.554;8.820;2022-10-16T10:34:35;96107.50;;;22.29;95.17
8717;BME280;4395;48.554;8.820;2022-10-16T10:36:45;96117.31;;;22.64;94.31
8717;BME280;4395;48.554;8.820;2022-10-16T10:38:51;96121.34;;;22.67;89.26
8717;BME280;4395;48.554;8.820;2022-10-16T10:41:09;96111.84;;;22.82;89.76
8717;BME280;4395;48.554;8.820;2022-10-16T10:43:35;96070.59;;;22.69;86.36
8717;BME280;4395;48.554;8.820;2022-10-16T10:45:46;96084.81;;;22.37;84.88
8717;BME280;4395;48.554;8.820;2022-10-16T10:47:59;96120.03;;;22.99;86.89
8717;BME280;4395;48.554;8.820;2022-10-16T10:50:12;96115.06;;;22.84;87.87
8717;BME280;4395;48.554;8.820;2022-10-16T10:52:33;96118.44;;;22.89;87.84
8717;BME280;4395;48.554;8.820;2022-10-16T10:54:43;96071.06;;;22.80;88.31
8717;BME280;4395;48.554;8.820;2022-10-16T10:56:57;96104.59;;;23.32;87.82
8717;BME280;4395;48.554;8.820;2022-10-16T10:59:27;95841.66;;;21.58;83.18
8717;BME280;4395;48.554;8.820;2022-10-16T11:01:40;96105.44;;;23.71;81.85
8717;BME280;4395;48.554;8.820;2022-10-16T11:04:01;96102.53;;;23.97;75.35
8717;BME280;4395;48.554;8.820;2022-10-16T11:06:08;96108.03;;;23.97;77.02
8717;BME280;4395;48.554;8.820;2022-10-16T11:08:16;96115.44;;;24.47;77.74
8717;BME280;4395;48.554;8.820;2022-10-16T11:10:21;96105.31;;;24.92;76.33
8717;BME280;4395;48.554;8.820;2022-10-16T11:12:28;96107.47;;;25.20;74.22
8717;BME280;4395;48.554;8.820;2022-10-16T11:14:38;96109.47;;;25.56;74.20
8717;BME280;4395;48.554;8.820;2022-10-16T11:16:48;96022.41;;;24.45;71.14